Terminal Aerodrome Forecast
Issued by NWS

Home | Current Version | Previous Version | Text Only | Print | Product List | Glossary On
Versions: 1 2 3 4 5 6 7 8 9 10 11 12 13 14 15 16 17 18 19 20 21 22 23 24 25 26 27 28 29 30 31
000
FTUS44 KMAF 230100 AAA
TAFHOB
TAF AMD
KHOB 230105Z 2301/2324 11013G18KT P6SM BKN040
      TEMPO 2301/2304 3SM TSRA BKN010CB
     FM230400 15015KT P6SM OVC025
      TEMPO 2304/2308 3SM TSRA OVC015CB
     FM230800 17015KT P6SM SHRA OVC020
      TEMPO 2308/2312 4SM TSRA OVC010CB
     FM231500 20014G22KT P6SM BKN050 BKN100=

USA.gov is the U.S. government's official web portal to all federal, state and local government web resources and services.